sensor_id;sensor_type;location;lat;lon;timestamp;P1;durP1;ratioP1;P2;durP2;ratioP2
4808;SDS011;2418;49.930;8.606;2023-07-02T00:02:08;2.85;;;2.30;;
4808;SDS011;2418;49.930;8.606;2023-07-02T00:04:34;2.88;;;2.67;;
4808;SDS011;2418;49.930;8.606;2023-07-02T00:07:00;2.40;;;2.30;;
4808;SDS011;2418;49.930;8.606;2023-07-02T00:09:26;2.70;;;2.22;;
4808;SDS011;2418;49.930;8.606;2023-07-02T00:11:52;2.67;;;2.47;;
4808;SDS011;2418;49.930;8.606;2023-07-02T00:14:18;2.10;;;2.00;;
4808;SDS011;2418;49.930;8.606;2023-07-02T00:16:45;2.50;;;2.30;;
4808;SDS011;2418;49.930;8.606;2023-07-02T00:19:11;2.88;;;2.67;;
4808;SDS011;2418;49.930;8.606;2023-07-02T00:21:38;3.50;;;2.70;;
4808;SDS011;2418;49.930;8.606;2023-07-02T00:24:05;3.08;;;2.88;;
4808;SDS011;2418;49.930;8.606;2023-07-02T00:26:31;2.42;;;2.30;;
4808;SDS011;2418;49.930;8.606;2023-07-02T00:28:57;2.45;;;2.25;;
4808;SDS011;2418;49.930;8.606;2023-07-02T00:31:23;5.00;;;2.80;;
4808;SDS011;2418;49.930;8.606;2023-07-02T00:33:50;2.63;;;2.42;;
4808;SDS011;2418;49.930;8.606;2023-07-02T00:36:16;4.70;;;2.20;;
4808;SDS011;2418;49.930;8.606;2023-07-02T00:38:46;4.20;;;2.70;;
4808;SDS011;2418;49.930;8.606;2023-07-02T00:41:13;5.40;;;2.40;;
4808;SDS011;2418;49.930;8.606;2023-07-02T00:43:39;3.50;;;2.30;;
4808;SDS011;2418;49.930;8.606;2023-07-02T00:46:08;2.10;;;2.00;;
4808;SDS011;2418;49.930;8.606;2023-07-02T00:48:35;2.85;;;2.55;;
4808;SDS011;2418;49.930;8.606;2023-07-02T00:51:01;4.00;;;2.20;;
4808;SDS011;2418;49.930;8.606;2023-07-02T00:56:30;3.70;;;2.00;;
4808;SDS011;2418;49.930;8.606;2023-07-02T00:58:56;4.30;;;2.70;;
4808;SDS011;2418;49.930;8.606;2023-07-02T01:01:24;2.40;;;2.30;;
4808;SDS011;2418;49.930;8.606;2023-07-02T01:03:55;5.90;;;2.40;;
4808;SDS011;2418;49.930;8.606;2023-07-02T01:06:25;2.50;;;2.28;;
4808;SDS011;2418;49.930;8.606;2023-07-02T01:08:53;3.22;;;1.88;;
4808;SDS011;2418;49.930;8.606;2023-07-02T01:11:20;5.18;;;2.20;;
4808;SDS011;2418;49.930;8.606;2023-07-02T01:13:48;5.25;;;2.45;;
4808;SDS011;2418;49.930;8.606;2023-07-02T01:16:16;3.10;;;2.03;;
4808;SDS011;2418;49.930;8.606;2023-07-02T01:18:42;3.80;;;2.10;;
4808;SDS011;2418;49.930;8.606;2023-07-02T01:21:09;3.80;;;2.13;;
4808;SDS011;2418;49.930;8.606;2023-07-02T01:23:35;2.15;;;2.03;;
4808;SDS011;2418;49.930;8.606;2023-07-02T01:26:02;2.38;;;2.00;;
4808;SDS011;2418;49.930;8.606;2023-07-02T01:28:34;3.10;;;2.53;;
4808;SDS011;2418;49.930;8.606;2023-07-02T01:31:02;3.10;;;2.33;;
4808;SDS011;2418;49.930;8.606;2023-07-02T01:33:29;2.17;;;2.08;;
4808;SDS011;2418;49.930;8.606;2023-07-02T01:35:55;8.50;;;2.73;;
4808;SDS011;2418;49.930;8.606;2023-07-02T01:38:21;2.10;;;2.00;;
4808;SDS011;2418;49.930;8.606;2023-07-02T01:40:47;2.95;;;2.30;;
4808;SDS011;2418;49.930;8.606;2023-07-02T01:43:13;3.10;;;2.20;;
4808;SDS011;2418;49.930;8.606;2023-07-02T01:45:40;2.85;;;2.65;;
4808;SDS011;2418;49.930;8.606;2023-07-02T01:48:07;3.90;;;2.20;;
4808;SDS011;2418;49.930;8.606;2023-07-02T01:50:32;2.67;;;2.47;;
4808;SDS011;2418;49.930;8.606;2023-07-02T01:52:58;2.40;;;2.20;;
4808;SDS011;2418;49.930;8.606;2023-07-02T01:55:24;2.95;;;2.65;;
4808;SDS011;2418;49.930;8.606;2023-07-02T01:57:50;3.53;;;2.40;;
4808;SDS011;2418;49.930;8.606;2023-07-02T02:00:16;3.00;;;2.30;;
4808;SDS011;2418;49.930;8.606;2023-07-02T02:02:43;3.80;;;2.00;;
4808;SDS011;2418;49.930;8.606;2023-07-02T02:05:09;7.25;;;2.70;;
4808;SDS011;2418;49.930;8.606;2023-07-02T02:07:35;4.30;;;2.10;;
4808;SDS011;2418;49.930;8.606;2023-07-02T02:10:04;2.85;;;2.10;;
4808;SDS011;2418;49.930;8.606;2023-07-02T02:12:32;3.03;;;2.70;;
4808;SDS011;2418;49.930;8.606;2023-07-02T02:14:58;6.70;;;3.20;;
4808;SDS011;2418;49.930;8.606;2023-07-02T02:17:24;4.90;;;3.20;;
4808;SDS011;2418;49.930;8.606;2023-07-02T02:19:50;3.42;;;2.92;;
4808;SDS011;2418;49.930;8.606;2023-07-02T02:22:16;3.13;;;2.92;;
4808;SDS011;2418;49.930;8.606;2023-07-02T02:24:42;3.90;;;3.30;;
4808;SDS011;2418;49.930;8.606;2023-07-02T02:27:08;3.23;;;3.07;;
4808;SDS011;2418;49.930;8.606;2023-07-02T02:29:34;6.10;;;2.80;;
4808;SDS011;2418;49.930;8.606;2023-07-02T02:32:00;3.55;;;3.30;;
4808;SDS011;2418;49.930;8.606;2023-07-02T02:34:26;3.58;;;2.70;;
4808;SDS011;2418;49.930;8.606;2023-07-02T02:36:53;4.45;;;2.75;;
4808;SDS011;2418;49.930;8.606;2023-07-02T02:39:20;3.53;;;2.97;;
4808;SDS011;2418;49.930;8.606;2023-07-02T02:41:46;3.67;;;3.47;;
4808;SDS011;2418;49.930;8.606;2023-07-02T02:44:12;4.10;;;3.28;;
4808;SDS011;2418;49.930;8.606;2023-07-02T02:46:38;4.50;;;3.58;;
4808;SDS011;2418;49.930;8.606;2023-07-02T02:49:04;5.63;;;3.60;;
4808;SDS011;2418;49.930;8.606;2023-07-02T02:51:30;3.95;;;3.65;;
4808;SDS011;2418;49.930;8.606;2023-07-02T02:53:56;6.07;;;4.43;;
4808;SDS011;2418;49.930;8.606;2023-07-02T02:56:22;4.10;;;3.80;;
4808;SDS011;2418;49.930;8.606;2023-07-02T02:58:48;4.47;;;4.18;;
4808;SDS011;2418;49.930;8.606;2023-07-02T03:01:14;5.70;;;4.27;;
4808;SDS011;2418;49.930;8.606;2023-07-02T03:03:41;6.55;;;4.03;;
4808;SDS011;2418;49.930;8.606;2023-07-02T03:06:13;6.87;;;4.20;;
4808;SDS011;2418;49.930;8.606;2023-07-02T03:08:40;6.35;;;4.20;;
4808;SDS011;2418;49.930;8.606;2023-07-02T03:11:05;5.13;;;4.73;;
4808;SDS011;2418;49.930;8.606;2023-07-02T03:13:32;9.27;;;4.90;;
4808;SDS011;2418;49.930;8.606;2023-07-02T03:15:58;6.30;;;4.88;;
4808;SDS011;2418;49.930;8.606;2023-07-02T03:18:25;9.37;;;4.83;;
4808;SDS011;2418;49.930;8.606;2023-07-02T03:20:51;6.80;;;4.30;;
4808;SDS011;2418;49.930;8.606;2023-07-02T03:23:17;11.05;;;4.75;;
4808;SDS011;2418;49.930;8.606;2023-07-02T03:25:42;5.65;;;4.80;;
4808;SDS011;2418;49.930;8.606;2023-07-02T03:28:08;5.63;;;4.50;;
4808;SDS011;2418;49.930;8.606;2023-07-02T03:30:34;4.80;;;4.30;;
4808;SDS011;2418;49.930;8.606;2023-07-02T03:33:00;4.80;;;4.30;;
4808;SDS011;2418;49.930;8.606;2023-07-02T03:35:26;6.25;;;4.60;;
4808;SDS011;2418;49.930;8.606;2023-07-02T03:37:52;5.43;;;4.93;;
4808;SDS011;2418;49.930;8.606;2023-07-02T03:40:18;7.20;;;4.90;;
4808;SDS011;2418;49.930;8.606;2023-07-02T03:42:44;7.47;;;4.87;;
4808;SDS011;2418;49.930;8.606;2023-07-02T03:45:10;4.90;;;4.50;;
4808;SDS011;2418;49.930;8.606;2023-07-02T03:47:36;9.00;;;4.75;;
4808;SDS011;2418;49.930;8.606;2023-07-02T03:50:02;11.20;;;5.47;;
4808;SDS011;2418;49.930;8.606;2023-07-02T03:52:28;8.20;;;5.03;;
4808;SDS011;2418;49.930;8.606;2023-07-02T03:54:54;7.35;;;5.00;;
4808;SDS011;2418;49.930;8.606;2023-07-02T03:57:20;8.40;;;5.38;;
4808;SDS011;2418;49.930;8.606;2023-07-02T03:59:46;9.90;;;5.30;;
4808;SDS011;2418;49.930;8.606;2023-07-02T04:02:12;6.50;;;5.28;;
4808;SDS011;2418;49.930;8.606;2023-07-02T04:04:38;5.30;;;4.80;;
4808;SDS011;2418;49.930;8.606;2023-07-02T04:07:04;7.45;;;5.00;;
4808;SDS011;2418;49.930;8.606;2023-07-02T04:09:30;7.63;;;4.80;;
4808;SDS011;2418;49.930;8.606;2023-07-02T04:11:57;7.03;;;5.30;;
4808;SDS011;2418;49.930;8.606;2023-07-02T04:14:23;7.20;;;5.57;;
4808;SDS011;2418;49.930;8.606;2023-07-02T04:16:49;6.63;;;5.40;;
4808;SDS011;2418;49.930;8.606;2023-07-02T04:19:15;6.13;;;5.53;;
4808;SDS011;2418;49.930;8.606;2023-07-02T04:21:41;6.07;;;5.55;;
4808;SDS011;2418;49.930;8.606;2023-07-02T04:24:07;5.30;;;4.80;;
4808;SDS011;2418;49.930;8.606;2023-07-02T04:26:33;9.63;;;5.45;;
4808;SDS011;2418;49.930;8.606;2023-07-02T04:29:01;8.27;;;5.53;;
4808;SDS011;2418;49.930;8.606;2023-07-02T04:31:27;11.40;;;5.93;;
4808;SDS011;2418;49.930;8.606;2023-07-02T04:33:53;6.88;;;4.40;;
4808;SDS011;2418;49.930;8.606;2023-07-02T04:36:20;6.30;;;4.75;;
4808;SDS011;2418;49.930;8.606;2023-07-02T04:38:46;5.00;;;4.60;;
4808;SDS011;2418;49.930;8.606;2023-07-02T04:41:12;6.50;;;5.07;;
4808;SDS011;2418;49.930;8.606;2023-07-02T04:43:38;5.82;;;5.25;;
4808;SDS011;2418;49.930;8.606;2023-07-02T04:46:04;6.57;;;4.85;;
4808;SDS011;2418;49.930;8.606;2023-07-02T04:48:32;7.30;;;5.22;;
4808;SDS011;2418;49.930;8.606;2023-07-02T04:50:58;8.27;;;5.70;;
4808;SDS011;2418;49.930;8.606;2023-07-02T04:53:24;7.40;;;4.97;;
4808;SDS011;2418;49.930;8.606;2023-07-02T04:55:51;7.75;;;5.38;;
4808;SDS011;2418;49.930;8.606;2023-07-02T04:58:17;7.35;;;5.38;;
4808;SDS011;2418;49.930;8.606;2023-07-02T05:00:43;8.82;;;5.07;;
4808;SDS011;2418;49.930;8.606;2023-07-02T05:03:09;6.30;;;5.63;;
4808;SDS011;2418;49.930;8.606;2023-07-02T05:05:35;8.73;;;4.60;;
4808;SDS011;2418;49.930;8.606;2023-07-02T05:08:01;7.80;;;5.40;;
4808;SDS011;2418;49.930;8.606;2023-07-02T05:10:29;9.43;;;5.50;;
4808;SDS011;2418;49.930;8.606;2023-07-02T05:12:55;9.43;;;5.67;;
4808;SDS011;2418;49.930;8.606;2023-07-02T05:15:21;9.15;;;5.85;;
4808;SDS011;2418;49.930;8.606;2023-07-02T05:17:47;7.70;;;6.32;;
4808;SDS011;2418;49.930;8.606;2023-07-02T05:20:13;6.25;;;5.68;;
4808;SDS011;2418;49.930;8.606;2023-07-02T05:22:38;15.32;;;6.40;;
4808;SDS011;2418;49.930;8.606;2023-07-02T05:25:04;7.13;;;5.95;;
4808;SDS011;2418;49.930;8.606;2023-07-02T05:27:31;15.45;;;7.18;;
4808;SDS011;2418;49.930;8.606;2023-07-02T05:29:57;9.20;;;6.43;;
4808;SDS011;2418;49.930;8.606;2023-07-02T05:32:22;9.00;;;6.60;;
4808;SDS011;2418;49.930;8.606;2023-07-02T05:34:48;10.20;;;7.10;;
4808;SDS011;2418;49.930;8.606;2023-07-02T05:37:14;10.00;;;6.70;;
4808;SDS011;2418;49.930;8.606;2023-07-02T05:39:40;8.63;;;6.43;;
4808;SDS011;2418;49.930;8.606;2023-07-02T05:42:07;8.10;;;6.70;;
4808;SDS011;2418;49.930;8.606;2023-07-02T05:44:33;10.23;;;7.30;;
4808;SDS011;2418;49.930;8.606;2023-07-02T05:46:59;12.75;;;7.50;;
4808;SDS011;2418;49.930;8.606;2023-07-02T05:49:25;13.43;;;7.97;;
4808;SDS011;2418;49.930;8.606;2023-07-02T05:51:51;11.52;;;7.55;;
4808;SDS011;2418;49.930;8.606;2023-07-02T05:54:17;12.25;;;7.40;;
4808;SDS011;2418;49.930;8.606;2023-07-02T05:56:43;11.63;;;8.15;;
4808;SDS011;2418;49.930;8.606;2023-07-02T05:59:09;14.10;;;7.93;;
4808;SDS011;2418;49.930;8.606;2023-07-02T06:01:36;11.75;;;8.00;;
4808;SDS011;2418;49.930;8.606;2023-07-02T06:04:02;19.87;;;8.30;;
4808;SDS011;2418;49.930;8.606;2023-07-02T06:06:28;13.63;;;8.52;;
4808;SDS011;2418;49.930;8.606;2023-07-02T06:08:54;12.60;;;7.70;;
4808;SDS011;2418;49.930;8.606;2023-07-02T06:11:20;13.73;;;8.20;;
4808;SDS011;2418;49.930;8.606;2023-07-02T06:13:46;12.90;;;8.60;;
4808;SDS011;2418;49.930;8.606;2023-07-02T06:16:12;17.58;;;8.07;;
4808;SDS011;2418;49.930;8.606;2023-07-02T06:18:38;10.07;;;7.55;;
4808;SDS011;2418;49.930;8.606;2023-07-02T06:21:04;14.10;;;7.50;;
4808;SDS011;2418;49.930;8.606;2023-07-02T06:23:39;13.82;;;8.98;;
4808;SDS011;2418;49.930;8.606;2023-07-02T06:26:05;15.23;;;8.00;;
4808;SDS011;2418;49.930;8.606;2023-07-02T06:28:31;17.30;;;9.50;;
4808;SDS011;2418;49.930;8.606;2023-07-02T06:30:56;9.83;;;7.97;;
4808;SDS011;2418;49.930;8.606;2023-07-02T06:33:22;14.30;;;8.18;;
4808;SDS011;2418;49.930;8.606;2023-07-02T06:35:49;10.85;;;8.40;;
4808;SDS011;2418;49.930;8.606;2023-07-02T06:38:15;15.47;;;9.30;;
4808;SDS011;2418;49.930;8.606;2023-07-02T06:40:41;12.35;;;8.65;;
4808;SDS011;2418;49.930;8.606;2023-07-02T06:43:07;17.00;;;9.68;;
4808;SDS011;2418;49.930;8.606;2023-07-02T06:45:33;17.10;;;10.57;;
4808;SDS011;2418;49.930;8.606;2023-07-02T06:47:59;15.65;;;10.65;;
4808;SDS011;2418;49.930;8.606;2023-07-02T06:50:25;19.38;;;9.70;;
4808;SDS011;2418;49.930;8.606;2023-07-02T06:52:51;14.63;;;9.90;;
4808;SDS011;2418;49.930;8.606;2023-07-02T06:55:16;16.10;;;10.40;;
4808;SDS011;2418;49.930;8.606;2023-07-02T06:57:43;18.50;;;10.05;;
4808;SDS011;2418;49.930;8.606;2023-07-02T07:00:10;13.57;;;9.68;;
4808;SDS011;2418;49.930;8.606;2023-07-02T07:02:37;18.52;;;9.70;;
4808;SDS011;2418;49.930;8.606;2023-07-02T07:05:04;20.00;;;10.65;;
4808;SDS011;2418;49.930;8.606;2023-07-02T07:07:31;17.50;;;10.70;;
4808;SDS011;2418;49.930;8.606;2023-07-02T07:09:57;22.02;;;10.35;;
4808;SDS011;2418;49.930;8.606;2023-07-02T07:12:24;18.87;;;10.37;;
4808;SDS011;2418;49.930;8.606;2023-07-02T07:14:50;21.90;;;9.80;;
4808;SDS011;2418;49.930;8.606;2023-07-02T07:17:16;16.88;;;10.27;;
4808;SDS011;2418;49.930;8.606;2023-07-02T07:19:42;15.48;;;9.70;;
4808;SDS011;2418;49.930;8.606;2023-07-02T07:22:08;21.33;;;11.00;;
4808;SDS011;2418;49.930;8.606;2023-07-02T07:24:36;17.02;;;10.15;;
4808;SDS011;2418;49.930;8.606;2023-07-02T07:27:01;18.33;;;10.98;;
4808;SDS011;2418;49.930;8.606;2023-07-02T07:29:27;16.33;;;10.75;;
4808;SDS011;2418;49.930;8.606;2023-07-02T07:31:53;18.17;;;10.90;;
4808;SDS011;2418;49.930;8.606;2023-07-02T07:34:19;19.08;;;10.70;;
4808;SDS011;2418;49.930;8.606;2023-07-02T07:36:45;16.98;;;11.10;;
4808;SDS011;2418;49.930;8.606;2023-07-02T07:39:11;20.33;;;10.23;;
4808;SDS011;2418;49.930;8.606;2023-07-02T07:41:37;18.95;;;10.25;;
4808;SDS011;2418;49.930;8.606;2023-07-02T07:44:03;17.08;;;10.80;;
4808;SDS011;2418;49.930;8.606;2023-07-02T07:46:29;24.00;;;9.73;;
4808;SDS011;2418;49.930;8.606;2023-07-02T07:48:55;17.13;;;10.50;;
4808;SDS011;2418;49.930;8.606;2023-07-02T07:51:21;17.50;;;10.65;;
4808;SDS011;2418;49.930;8.606;2023-07-02T07:53:47;16.27;;;10.07;;
4808;SDS011;2418;49.930;8.606;2023-07-02T07:56:13;19.95;;;11.23;;
4808;SDS011;2418;49.930;8.606;2023-07-02T07:58:39;22.40;;;10.18;;
4808;SDS011;2418;49.930;8.606;2023-07-02T08:01:05;20.77;;;11.07;;
4808;SDS011;2418;49.930;8.606;2023-07-02T08:03:31;17.85;;;10.75;;
4808;SDS011;2418;49.930;8.606;2023-07-02T08:05:57;19.52;;;10.82;;
4808;SDS011;2418;49.930;8.606;2023-07-02T08:08:23;18.23;;;10.82;;
4808;SDS011;2418;49.930;8.606;2023-07-02T08:10:49;24.45;;;10.65;;
4808;SDS011;2418;49.930;8.606;2023-07-02T08:13:15;15.57;;;10.37;;
4808;SDS011;2418;49.930;8.606;2023-07-02T08:15:42;16.88;;;10.98;;
4808;SDS011;2418;49.930;8.606;2023-07-02T08:18:09;17.63;;;11.18;;
4808;SDS011;2418;49.930;8.606;2023-07-02T08:20:38;18.35;;;10.38;;
4808;SDS011;2418;49.930;8.606;2023-07-02T08:23:04;15.40;;;9.43;;
4808;SDS011;2418;49.930;8.606;2023-07-02T08:25:30;16.25;;;10.80;;
4808;SDS011;2418;49.930;8.606;2023-07-02T08:27:56;17.25;;;9.90;;
4808;SDS011;2418;49.930;8.606;2023-07-02T08:30:23;16.65;;;10.40;;
4808;SDS011;2418;49.930;8.606;2023-07-02T08:32:49;18.87;;;10.40;;
4808;SDS011;2418;49.930;8.606;2023-07-02T08:35:17;16.40;;;10.48;;
4808;SDS011;2418;49.930;8.606;2023-07-02T08:37:43;15.85;;;9.57;;
4808;SDS011;2418;49.930;8.606;2023-07-02T08:40:16;13.23;;;9.60;;
4808;SDS011;2418;49.930;8.606;2023-07-02T08:42:43;13.07;;;9.15;;
4808;SDS011;2418;49.930;8.606;2023-07-02T08:45:10;14.93;;;10.00;;
4808;SDS011;2418;49.930;8.606;2023-07-02T08:47:36;13.48;;;8.70;;
4808;SDS011;2418;49.930;8.606;2023-07-02T08:50:02;15.85;;;9.40;;
4808;SDS011;2418;49.930;8.606;2023-07-02T08:52:30;17.77;;;9.20;;
4808;SDS011;2418;49.930;8.606;2023-07-02T08:54:57;20.52;;;8.60;;
4808;SDS011;2418;49.930;8.606;2023-07-02T08:57:23;13.33;;;8.70;;
4808;SDS011;2418;49.930;8.606;2023-07-02T08:59:49;15.27;;;8.65;;
4808;SDS011;2418;49.930;8.606;2023-07-02T09:02:16;15.85;;;8.52;;
4808;SDS011;2418;49.930;8.606;2023-07-02T09:04:43;17.98;;;9.55;;
4808;SDS011;2418;49.930;8.606;2023-07-02T09:07:09;10.88;;;7.68;;
4808;SDS011;2418;49.930;8.606;2023-07-02T09:09:45;14.73;;;8.57;;
4808;SDS011;2418;49.930;8.606;2023-07-02T09:12:30;12.65;;;8.30;;
4808;SDS011;2418;49.930;8.606;2023-07-02T09:17:26;14.73;;;8.57;;
4808;SDS011;2418;49.930;8.606;2023-07-02T09:19:54;12.15;;;8.88;;
4808;SDS011;2418;49.930;8.606;2023-07-02T09:22:20;14.40;;;8.80;;
4808;SDS011;2418;49.930;8.606;2023-07-02T09:24:56;14.27;;;7.97;;
4808;SDS011;2418;49.930;8.606;2023-07-02T09:30:05;9.70;;;8.13;;
4808;SDS011;2418;49.930;8.606;2023-07-02T09:32:32;10.90;;;8.40;;
4808;SDS011;2418;49.930;8.606;2023-07-02T09:34:58;10.13;;;7.57;;
4808;SDS011;2418;49.930;8.606;2023-07-02T09:37:24;11.00;;;7.72;;
4808;SDS011;2418;49.930;8.606;2023-07-02T09:39:51;9.38;;;7.20;;
4808;SDS011;2418;49.930;8.606;2023-07-02T09:42:19;12.57;;;8.45;;
4808;SDS011;2418;49.930;8.606;2023-07-02T09:44:45;10.52;;;8.02;;
4808;SDS011;2418;49.930;8.606;2023-07-02T09:47:12;10.77;;;8.10;;
4808;SDS011;2418;49.930;8.606;2023-07-02T09:49:43;12.45;;;7.95;;
4808;SDS011;2418;49.930;8.606;2023-07-02T09:52:11;12.10;;;8.30;;
4808;SDS011;2418;49.930;8.606;2023-07-02T09:54:39;12.40;;;7.35;;
4808;SDS011;2418;49.930;8.606;2023-07-02T09:57:05;12.37;;;8.07;;
4808;SDS011;2418;49.930;8.606;2023-07-02T09:59:32;12.40;;;7.70;;
4808;SDS011;2418;49.930;8.606;2023-07-02T10:01:58;12.27;;;8.27;;
4808;SDS011;2418;49.930;8.606;2023-07-02T10:04:24;15.80;;;8.38;;
4808;SDS011;2418;49.930;8.606;2023-07-02T10:06:50;14.50;;;7.72;;
4808;SDS011;2418;49.930;8.606;2023-07-02T10:09:34;13.65;;;9.23;;
4808;SDS011;2418;49.930;8.606;2023-07-02T10:12:00;13.15;;;9.05;;
4808;SDS011;2418;49.930;8.606;2023-07-02T10:14:26;12.07;;;9.18;;
4808;SDS011;2418;49.930;8.606;2023-07-02T10:16:53;12.80;;;9.27;;
4808;SDS011;2418;49.930;8.606;2023-07-02T10:19:19;14.10;;;9.90;;
4808;SDS011;2418;49.930;8.606;2023-07-02T10:21:45;14.40;;;11.00;;
4808;SDS011;2418;49.930;8.606;2023-07-02T10:24:15;16.27;;;10.43;;
4808;SDS011;2418;49.930;8.606;2023-07-02T10:27:00;14.68;;;7.57;;
4808;SDS011;2418;49.930;8.606;2023-07-02T10:29:27;14.70;;;9.35;;
4808;SDS011;2418;49.930;8.606;2023-07-02T10:31:57;17.27;;;9.93;;
4808;SDS011;2418;49.930;8.606;2023-07-02T10:34:30;14.65;;;9.52;;
4808;SDS011;2418;49.930;8.606;2023-07-02T10:36:56;14.85;;;8.82;;
4808;SDS011;2418;49.930;8.606;2023-07-02T10:39:23;13.13;;;9.60;;
4808;SDS011;2418;49.930;8.606;2023-07-02T10:41:49;17.25;;;10.43;;
4808;SDS011;2418;49.930;8.606;2023-07-02T10:44:15;17.80;;;10.40;;
4808;SDS011;2418;49.930;8.606;2023-07-02T10:46:48;17.90;;;10.00;;
4808;SDS011;2418;49.930;8.606;2023-07-02T10:49:14;17.17;;;10.90;;
4808;SDS011;2418;49.930;8.606;2023-07-02T10:51:42;16.13;;;10.68;;
4808;SDS011;2418;49.930;8.606;2023-07-02T10:54:08;13.95;;;9.50;;
4808;SDS011;2418;49.930;8.606;2023-07-02T10:56:34;21.27;;;11.70;;
4808;SDS011;2418;49.930;8.606;2023-07-02T10:59:01;18.80;;;10.60;;
4808;SDS011;2418;49.930;8.606;2023-07-02T11:01:29;18.70;;;10.88;;
4808;SDS011;2418;49.930;8.606;2023-07-02T11:04:02;20.42;;;10.20;;
4808;SDS011;2418;49.930;8.606;2023-07-02T11:06:30;13.63;;;10.00;;
4808;SDS011;2418;49.930;8.606;2023-07-02T11:08:57;19.13;;;11.13;;
4808;SDS011;2418;49.930;8.606;2023-07-02T11:11:23;18.42;;;11.18;;
4808;SDS011;2418;49.930;8.606;2023-07-02T11:13:50;18.40;;;9.93;;
4808;SDS011;2418;49.930;8.606;2023-07-02T11:16:17;18.53;;;11.00;;
4808;SDS011;2418;49.930;8.606;2023-07-02T11:18:43;15.20;;;10.52;;
4808;SDS011;2418;49.930;8.606;2023-07-02T11:21:10;18.25;;;10.77;;
4808;SDS011;2418;49.930;8.606;2023-07-02T11:23:36;18.65;;;11.32;;
4808;SDS011;2418;49.930;8.606;2023-07-02T11:26:02;16.05;;;9.57;;
4808;SDS011;2418;49.930;8.606;2023-07-02T11:28:29;21.35;;;10.90;;
4808;SDS011;2418;49.930;8.606;2023-07-02T11:30:56;20.38;;;11.60;;
4808;SDS011;2418;49.930;8.606;2023-07-02T11:33:39;17.52;;;11.60;;
4808;SDS011;2418;49.930;8.606;2023-07-02T11:36:05;18.35;;;11.32;;
4808;SDS011;2418;49.930;8.606;2023-07-02T11:38:33;17.30;;;11.45;;
4808;SDS011;2418;49.930;8.606;2023-07-02T11:40:59;17.50;;;11.60;;
4808;SDS011;2418;49.930;8.606;2023-07-02T11:43:25;20.15;;;11.18;;
4808;SDS011;2418;49.930;8.606;2023-07-02T11:45:51;16.63;;;10.48;;
4808;SDS011;2418;49.930;8.606;2023-07-02T11:48:17;22.10;;;11.82;;
4808;SDS011;2418;49.930;8.606;2023-07-02T11:50:43;21.75;;;11.75;;
4808;SDS011;2418;49.930;8.606;2023-07-02T11:53:09;23.77;;;12.85;;
4808;SDS011;2418;49.930;8.606;2023-07-02T11:55:36;23.98;;;11.65;;
4808;SDS011;2418;49.930;8.606;2023-07-02T11:58:03;26.20;;;11.60;;
4808;SDS011;2418;49.930;8.606;2023-07-02T12:00:29;21.38;;;12.52;;
4808;SDS011;2418;49.930;8.606;2023-07-02T12:02:55;20.63;;;12.17;;
4808;SDS011;2418;49.930;8.606;2023-07-02T12:05:21;20.87;;;13.00;;
4808;SDS011;2418;49.930;8.606;2023-07-02T12:07:47;22.80;;;13.18;;
4808;SDS011;2418;49.930;8.606;2023-07-02T12:10:13;21.60;;;10.48;;
4808;SDS011;2418;49.930;8.606;2023-07-02T12:12:39;22.10;;;12.85;;
4808;SDS011;2418;49.930;8.606;2023-07-02T12:15:06;20.27;;;12.30;;
4808;SDS011;2418;49.930;8.606;2023-07-02T12:17:32;18.48;;;10.82;;
4808;SDS011;2418;49.930;8.606;2023-07-02T12:19:59;21.27;;;11.73;;
4808;SDS011;2418;49.930;8.606;2023-07-02T12:22:25;23.17;;;11.68;;
4808;SDS011;2418;49.930;8.606;2023-07-02T12:24:51;20.73;;;12.90;;
4808;SDS011;2418;49.930;8.606;2023-07-02T12:27:20;19.42;;;11.63;;
4808;SDS011;2418;49.930;8.606;2023-07-02T12:29:46;23.10;;;11.90;;
4808;SDS011;2418;49.930;8.606;2023-07-02T12:32:13;20.40;;;11.50;;
4808;SDS011;2418;49.930;8.606;2023-07-02T12:34:39;25.63;;;12.82;;
4808;SDS011;2418;49.930;8.606;2023-07-02T12:37:05;18.80;;;11.63;;
4808;SDS011;2418;49.930;8.606;2023-07-02T12:39:31;20.65;;;12.82;;
4808;SDS011;2418;49.930;8.606;2023-07-02T12:41:57;21.00;;;11.60;;
4808;SDS011;2418;49.930;8.606;2023-07-02T12:44:24;20.67;;;13.77;;
4808;SDS011;2418;49.930;8.606;2023-07-02T12:46:50;21.45;;;12.35;;
4808;SDS011;2418;49.930;8.606;2023-07-02T12:49:16;20.92;;;12.57;;
4808;SDS011;2418;49.930;8.606;2023-07-02T12:51:42;22.48;;;13.20;;
4808;SDS011;2418;49.930;8.606;2023-07-02T12:54:09;19.98;;;13.32;;
4808;SDS011;2418;49.930;8.606;2023-07-02T12:56:36;23.95;;;14.30;;
4808;SDS011;2418;49.930;8.606;2023-07-02T12:59:02;24.02;;;13.45;;
4808;SDS011;2418;49.930;8.606;2023-07-02T13:01:28;19.00;;;10.05;;
4808;SDS011;2418;49.930;8.606;2023-07-02T13:03:55;20.77;;;12.10;;
4808;SDS011;2418;49.930;8.606;2023-07-02T13:06:21;22.52;;;13.02;;
4808;SDS011;2418;49.930;8.606;2023-07-02T13:08:48;22.70;;;12.90;;
4808;SDS011;2418;49.930;8.606;2023-07-02T13:11:14;20.13;;;11.80;;
4808;SDS011;2418;49.930;8.606;2023-07-02T13:13:40;19.55;;;12.05;;
4808;SDS011;2418;49.930;8.606;2023-07-02T13:16:06;23.00;;;12.48;;
4808;SDS011;2418;49.930;8.606;2023-07-02T13:18:32;19.55;;;12.00;;
4808;SDS011;2418;49.930;8.606;2023-07-02T13:20:59;18.10;;;13.23;;
4808;SDS011;2418;49.930;8.606;2023-07-02T13:23:25;24.25;;;12.65;;
4808;SDS011;2418;49.930;8.606;2023-07-02T13:25:51;24.98;;;12.70;;
4808;SDS011;2418;49.930;8.606;2023-07-02T13:28:17;21.02;;;13.00;;
4808;SDS011;2418;49.930;8.606;2023-07-02T13:30:46;19.88;;;12.45;;
4808;SDS011;2418;49.930;8.606;2023-07-02T13:33:13;15.27;;;9.50;;
4808;SDS011;2418;49.930;8.606;2023-07-02T13:35:39;18.58;;;11.48;;
4808;SDS011;2418;49.930;8.606;2023-07-02T13:38:06;16.77;;;10.80;;
4808;SDS011;2418;49.930;8.606;2023-07-02T13:40:32;17.95;;;11.85;;
4808;SDS011;2418;49.930;8.606;2023-07-02T13:42:58;19.90;;;11.70;;
4808;SDS011;2418;49.930;8.606;2023-07-02T13:45:24;19.58;;;10.32;;
4808;SDS011;2418;49.930;8.606;2023-07-02T13:47:50;16.77;;;11.30;;
4808;SDS011;2418;49.930;8.606;2023-07-02T13:50:16;17.88;;;9.43;;
4808;SDS011;2418;49.930;8.606;2023-07-02T13:52:41;14.38;;;9.05;;
4808;SDS011;2418;49.930;8.606;2023-07-02T13:55:08;17.40;;;11.00;;
4808;SDS011;2418;49.930;8.606;2023-07-02T13:57:34;12.73;;;9.05;;
4808;SDS011;2418;49.930;8.606;2023-07-02T14:00:00;16.52;;;10.07;;
4808;SDS011;2418;49.930;8.606;2023-07-02T14:02:25;19.65;;;11.63;;
4808;SDS011;2418;49.930;8.606;2023-07-02T14:04:51;17.60;;;11.75;;
4808;SDS011;2418;49.930;8.606;2023-07-02T14:07:18;21.92;;;11.65;;
4808;SDS011;2418;49.930;8.606;2023-07-02T14:09:44;17.35;;;10.80;;
4808;SDS011;2418;49.930;8.606;2023-07-02T14:12:10;25.63;;;12.52;;
4808;SDS011;2418;49.930;8.606;2023-07-02T14:14:37;20.02;;;11.50;;
4808;SDS011;2418;49.930;8.606;2023-07-02T14:17:03;14.52;;;9.80;;
4808;SDS011;2418;49.930;8.606;2023-07-02T14:19:29;18.42;;;11.05;;
4808;SDS011;2418;49.930;8.606;2023-07-02T14:21:55;16.60;;;10.65;;
4808;SDS011;2418;49.930;8.606;2023-07-02T14:24:21;19.40;;;10.57;;
4808;SDS011;2418;49.930;8.606;2023-07-02T14:26:47;17.65;;;11.57;;
4808;SDS011;2418;49.930;8.606;2023-07-02T14:29:13;22.37;;;11.37;;
4808;SDS011;2418;49.930;8.606;2023-07-02T14:31:39;19.67;;;10.00;;
4808;SDS011;2418;49.930;8.606;2023-07-02T14:34:05;18.48;;;10.88;;
4808;SDS011;2418;49.930;8.606;2023-07-02T14:36:31;18.65;;;11.48;;
4808;SDS011;2418;49.930;8.606;2023-07-02T14:38:57;24.40;;;12.50;;
4808;SDS011;2418;49.930;8.606;2023-07-02T14:41:23;20.00;;;12.27;;
4808;SDS011;2418;49.930;8.606;2023-07-02T14:43:49;24.65;;;12.85;;
4808;SDS011;2418;49.930;8.606;2023-07-02T14:46:15;18.02;;;11.73;;
4808;SDS011;2418;49.930;8.606;2023-07-02T14:48:41;18.53;;;11.33;;
4808;SDS011;2418;49.930;8.606;2023-07-02T14:51:06;18.63;;;11.33;;
4808;SDS011;2418;49.930;8.606;2023-07-02T14:53:33;20.27;;;12.10;;
4808;SDS011;2418;49.930;8.606;2023-07-02T14:55:59;21.00;;;12.10;;
4808;SDS011;2418;49.930;8.606;2023-07-02T14:58:26;20.15;;;11.68;;
4808;SDS011;2418;49.930;8.606;2023-07-02T15:00:53;18.00;;;11.35;;
4808;SDS011;2418;49.930;8.606;2023-07-02T15:03:20;19.25;;;12.27;;
4808;SDS011;2418;49.930;8.606;2023-07-02T15:05:49;17.40;;;11.10;;